Terminal Aerodrome Forecast
Issued by NWS

Home | Current Version | Previous Version | Text Only | Print | Product List | Glossary On
Versions: 1 2 3 4 5 6 7 8 9 10 11 12 13 14 15 16 17 18 19 20 21 22 23
000
FTUS45 KABQ 301700
TAFROW
TAF
KROW 301735Z 3018/3118 01007KT P6SM SCT120
     FM310100 03014G22KT P6SM VCTS BKN060CB
     FM310400 36012G22KT P6SM VCSH BKN060
     FM310700 36010KT P6SM OVC050
     FM311400 05006KT P6SM SCT070 BKN200=

USA.gov is the U.S. government's official web portal to all federal, state and local government web resources and services.